Time;durP1;ratioP1;P1;durP2;ratioP2;P2;SDS_P1;SDS_P2;PMS_P1;PMS_P2;Temp;Humidity;BMP_temperature;BMP_pressure;BME280_temperature;BME280_humidity;BME280_pressure;Samples;Min_cycle;Max_cycle;Signal;HPM_P1;HPM_P2
2020/12/28 00:00:33;;;;;;;3.85;3.33;;;2.40;99.90;;;;;;5055759;28;20040;-47
2020/12/28 00:02:59;;;;;;;2.85;2.30;;;2.40;99.90;;;;;;5064012;28;20032;-47
2020/12/28 00:05:25;;;;;;;2.88;2.60;;;2.50;99.90;;;;;;5065565;28;20036;-48
2020/12/28 00:07:52;;;;;;;3.75;2.97;;;2.50;99.90;;;;;;5063116;28;20024;-47
2020/12/28 00:10:18;;;;;;;3.17;2.78;;;2.50;99.90;;;;;;5058984;28;20118;-49
2020/12/28 00:12:47;;;;;;;3.20;2.75;;;2.50;99.90;;;;;;5062639;28;20047;-48
2020/12/28 00:15:24;;;;;;;4.00;2.70;;;2.50;99.90;;;;;;5063471;28;20587;-46
2020/12/28 00:17:52;;;;;;;2.70;2.45;;;2.50;99.90;;;;;;5065046;28;20035;-46
2020/12/28 00:20:20;;;;;;;2.90;2.30;;;2.50;99.90;;;;;;5065368;28;20058;-51
2020/12/28 00:22:46;;;;;;;2.70;2.38;;;2.50;99.90;;;;;;5061266;28;20025;-46
2020/12/28 00:25:12;;;;;;;3.65;2.30;;;2.50;99.90;;;;;;5063119;28;20052;-45
2020/12/28 00:27:37;;;;;;;2.55;2.35;;;2.50;99.90;;;;;;5054620;28;20040;-45
2020/12/28 00:30:07;;;;;;;2.85;2.63;;;2.50;99.90;;;;;;5054321;28;20131;-48
2020/12/28 00:32:34;;;;;;;2.83;2.63;;;2.50;99.90;;;;;;5039552;28;20060;-49
2020/12/28 00:34:59;;;;;;;2.88;2.35;;;2.50;99.90;;;;;;5060638;28;20223;-45
2020/12/28 00:37:25;;;;;;;2.65;2.40;;;2.50;99.90;;;;;;5058373;28;20526;-47
2020/12/28 00:39:51;;;;;;;3.90;2.78;;;2.50;99.90;;;;;;5056381;28;20032;-45
2020/12/28 00:42:16;;;;;;;2.67;2.30;;;2.50;99.90;;;;;;5061091;28;20016;-46
2020/12/28 00:44:42;;;;;;;2.92;2.42;;;2.60;99.90;;;;;;5054362;28;20033;-50
2020/12/28 00:47:09;;;;;;;3.40;2.13;;;2.60;99.90;;;;;;5060392;28;20055;-49
2020/12/28 00:49:35;;;;;;;2.25;1.90;;;2.60;99.90;;;;;;5044566;28;20652;-46
2020/12/28 00:52:00;;;;;;;4.40;2.58;;;2.60;99.90;;;;;;5064331;28;20017;-47
2020/12/28 00:54:26;;;;;;;3.55;2.20;;;2.60;99.90;;;;;;5054904;28;20024;-46
2020/12/28 00:56:51;;;;;;;2.47;2.28;;;2.60;99.90;;;;;;5058243;28;20059;-46
2020/12/28 00:59:17;;;;;;;4.40;2.10;;;2.60;99.90;;;;;;5055619;28;20429;-45
2020/12/28 01:01:43;;;;;;;3.67;2.38;;;2.60;99.90;;;;;;5063070;28;20032;-45
2020/12/28 01:04:08;;;;;;;2.17;1.98;;;2.60;99.90;;;;;;5060069;28;20415;-45
2020/12/28 01:06:34;;;;;;;3.05;2.13;;;2.70;99.90;;;;;;5058326;28;20028;-44
2020/12/28 01:09:00;;;;;;;2.38;2.15;;;2.60;99.90;;;;;;5056812;28;20112;-47
2020/12/28 01:11:29;;;;;;;2.92;2.30;;;2.70;99.90;;;;;;5041236;28;20028;-46
2020/12/28 01:13:54;;;;;;;2.47;2.20;;;2.60;99.90;;;;;;5060835;28;20100;-46
2020/12/28 01:16:21;;;;;;;2.28;2.08;;;2.60;99.90;;;;;;5051827;28;20052;-47
2020/12/28 01:18:47;;;;;;;2.75;1.80;;;2.60;99.90;;;;;;5049441;28;20026;-45
2020/12/28 01:21:19;;;;;;;2.55;2.03;;;2.70;99.90;;;;;;5048974;28;20093;-47
2020/12/28 01:23:44;;;;;;;4.15;2.70;;;2.60;99.90;;;;;;5064880;28;20112;-46
2020/12/28 01:26:10;;;;;;;2.83;2.10;;;2.70;99.90;;;;;;5059258;28;20100;-45
2020/12/28 01:28:35;;;;;;;2.28;2.00;;;2.70;99.90;;;;;;5058132;28;20036;-45
2020/12/28 01:31:01;;;;;;;1.65;1.50;;;2.70;99.90;;;;;;5061100;28;20043;-45
2020/12/28 01:33:26;;;;;;;2.08;1.88;;;2.70;99.90;;;;;;5053679;28;20124;-46
2020/12/28 01:35:52;;;;;;;2.20;2.03;;;2.70;99.90;;;;;;5064750;28;20123;-47
2020/12/28 01:38:17;;;;;;;2.17;1.60;;;2.70;99.90;;;;;;5064347;28;20526;-48
2020/12/28 01:40:43;;;;;;;2.42;1.92;;;2.70;99.90;;;;;;5058695;28;20500;-45
2020/12/28 01:43:08;;;;;;;2.08;1.80;;;2.70;99.90;;;;;;5053727;28;20056;-47
2020/12/28 01:45:34;;;;;;;2.20;1.77;;;2.70;99.90;;;;;;5065237;28;20553;-45
2020/12/28 01:48:00;;;;;;;3.05;1.92;;;2.80;99.90;;;;;;5066749;28;20513;-50
2020/12/28 01:50:25;;;;;;;2.38;1.80;;;2.70;99.90;;;;;;5061997;28;20099;-46
2020/12/28 01:52:51;;;;;;;2.45;1.92;;;2.80;99.90;;;;;;5059859;28;20517;-46
2020/12/28 01:55:17;;;;;;;2.42;2.00;;;2.70;99.90;;;;;;5063624;28;20029;-46
2020/12/28 01:57:43;;;;;;;2.17;1.80;;;2.70;99.90;;;;;;5056002;28;20025;-45
2020/12/28 02:00:09;;;;;;;1.92;1.73;;;2.70;99.90;;;;;;5035960;28;20032;-44
2020/12/28 02:02:36;;;;;;;2.28;1.70;;;2.70;99.90;;;;;;5055792;28;20041;-45
2020/12/28 02:05:02;;;;;;;1.92;1.58;;;2.80;99.90;;;;;;5061559;28;20127;-45
2020/12/28 02:07:31;;;;;;;2.17;1.73;;;2.80;99.90;;;;;;5057315;28;20056;-50
2020/12/28 02:09:57;;;;;;;2.42;1.70;;;2.80;99.90;;;;;;5060135;28;20036;-49
2020/12/28 02:12:22;;;;;;;2.60;1.77;;;2.90;99.90;;;;;;5055662;28;20024;-46
2020/12/28 02:14:48;;;;;;;2.42;1.70;;;2.80;99.90;;;;;;5062279;28;20057;-46
2020/12/28 02:17:13;;;;;;;1.80;1.70;;;2.80;99.90;;;;;;5061435;28;20086;-48
2020/12/28 02:19:39;;;;;;;3.08;1.85;;;2.90;99.90;;;;;;5063148;28;20246;-46
2020/12/28 02:22:04;;;;;;;1.75;1.40;;;2.90;99.90;;;;;;5050101;28;20016;-46
2020/12/28 02:24:30;;;;;;;2.25;1.42;;;2.90;99.90;;;;;;5056573;28;20521;-46
2020/12/28 02:26:55;;;;;;;1.70;1.60;;;2.80;99.90;;;;;;5066820;28;20024;-46
2020/12/28 02:29:21;;;;;;;2.05;1.73;;;2.90;99.90;;;;;;5066414;28;20112;-46
2020/12/28 02:31:46;;;;;;;2.35;1.85;;;2.90;99.90;;;;;;5056118;28;20108;-46
2020/12/28 02:34:12;;;;;;;1.85;1.60;;;2.80;99.90;;;;;;5051022;28;20625;-46
2020/12/28 02:36:37;;;;;;;1.38;1.27;;;2.80;99.90;;;;;;5044548;28;20029;-47
2020/12/28 02:39:03;;;;;;;1.55;1.45;;;2.80;99.90;;;;;;5065605;28;20020;-48
2020/12/28 02:41:29;;;;;;;2.78;1.80;;;2.80;99.90;;;;;;5065277;28;20112;-46
2020/12/28 02:43:54;;;;;;;1.90;1.70;;;2.80;99.90;;;;;;5067591;28;20017;-47
2020/12/28 02:46:20;;;;;;;1.60;1.50;;;2.80;99.90;;;;;;5067717;28;20028;-45
2020/12/28 02:48:45;;;;;;;1.27;1.17;;;2.80;99.90;;;;;;5061233;28;20119;-45
2020/12/28 02:51:12;;;;;;;2.05;1.75;;;2.80;99.90;;;;;;5067612;28;20123;-44
2020/12/28 02:53:38;;;;;;;2.05;1.45;;;2.80;99.90;;;;;;5062178;28;20502;-44
2020/12/28 02:56:04;;;;;;;2.00;1.63;;;2.80;99.90;;;;;;5021577;28;20723;-44
2020/12/28 02:58:29;;;;;;;1.80;1.50;;;2.80;99.90;;;;;;5048857;28;20010;-46
2020/12/28 03:00:55;;;;;;;3.42;1.40;;;2.80;99.90;;;;;;5022758;28;20453;-45
2020/12/28 03:03:20;;;;;;;2.60;1.67;;;2.80;99.90;;;;;;5034121;28;20017;-46
2020/12/28 03:05:46;;;;;;;1.85;1.70;;;2.80;99.90;;;;;;5036615;28;20079;-43
2020/12/28 03:08:12;;;;;;;1.73;1.55;;;2.80;99.90;;;;;;5065926;28;20048;-43
2020/12/28 03:10:37;;;;;;;1.98;1.70;;;2.80;99.90;;;;;;5050331;28;20024;-44
2020/12/28 03:13:03;;;;;;;1.48;1.30;;;2.90;99.90;;;;;;5065040;28;20016;-45
2020/12/28 03:15:28;;;;;;;2.40;1.40;;;2.90;99.90;;;;;;5065083;28;20025;-45
2020/12/28 03:17:54;;;;;;;2.33;1.27;;;2.80;99.90;;;;;;5045928;28;20429;-45
2020/12/28 03:20:19;;;;;;;1.85;1.75;;;2.90;99.90;;;;;;5060670;28;20020;-44
2020/12/28 03:22:45;;;;;;;1.58;1.48;;;2.90;99.90;;;;;;5058964;28;20033;-43
2020/12/28 03:25:11;;;;;;;2.03;1.20;;;2.90;99.90;;;;;;5045091;28;20081;-43
2020/12/28 03:27:37;;;;;;;1.52;1.42;;;2.90;99.90;;;;;;5062756;28;20033;-44
2020/12/28 03:30:03;;;;;;;1.73;1.60;;;2.90;99.90;;;;;;5055674;28;20479;-44
2020/12/28 03:32:29;;;;;;;2.58;1.70;;;2.90;99.90;;;;;;5032733;28;20018;-46
2020/12/28 03:34:54;;;;;;;2.10;1.33;;;2.90;99.90;;;;;;5044240;28;20082;-46
2020/12/28 03:37:20;;;;;;;1.73;1.60;;;2.90;99.90;;;;;;5025657;28;20430;-46
2020/12/28 03:39:45;;;;;;;1.92;1.38;;;3.00;99.90;;;;;;5041941;28;20032;-45
2020/12/28 03:42:11;;;;;;;1.73;1.20;;;2.90;99.90;;;;;;5033803;28;20079;-45
2020/12/28 03:44:36;;;;;;;1.95;1.85;;;3.00;99.90;;;;;;5031730;28;20031;-42
2020/12/28 03:47:02;;;;;;;2.05;1.52;;;3.00;99.90;;;;;;5041278;28;20037;-46
2020/12/28 03:49:28;;;;;;;1.58;1.48;;;3.00;99.90;;;;;;5043634;28;20444;-44
2020/12/28 03:51:53;;;;;;;2.60;2.20;;;3.00;99.90;;;;;;5034550;28;20503;-46
2020/12/28 03:54:19;;;;;;;1.73;1.60;;;3.00;99.90;;;;;;5038871;28;20044;-47
2020/12/28 03:56:44;;;;;;;1.40;1.30;;;3.00;99.90;;;;;;5029961;28;20030;-47
2020/12/28 03:59:10;;;;;;;1.40;1.30;;;3.00;99.90;;;;;;5031796;28;20025;-45
2020/12/28 04:01:36;;;;;;;2.03;0.98;;;3.00;99.90;;;;;;5025116;28;20017;-47
2020/12/28 04:04:01;;;;;;;1.33;1.23;;;3.00;99.90;;;;;;5035721;28;20872;-44
2020/12/28 04:06:27;;;;;;;1.27;1.15;;;3.00;99.90;;;;;;5049025;28;20894;-44
2020/12/28 04:08:52;;;;;;;1.85;1.58;;;3.00;99.90;;;;;;5052390;28;20025;-47
2020/12/28 04:11:18;;;;;;;1.63;1.52;;;3.00;99.90;;;;;;5050807;28;20025;-46
2020/12/28 04:13:43;;;;;;;2.15;1.40;;;3.00;99.90;;;;;;5052263;28;20044;-49
2020/12/28 04:16:09;;;;;;;2.17;1.38;;;3.00;99.90;;;;;;5052473;28;20426;-46
2020/12/28 04:18:35;;;;;;;1.65;1.30;;;3.00;99.90;;;;;;5057350;28;20102;-48
2020/12/28 04:21:00;;;;;;;1.40;1.30;;;3.00;99.90;;;;;;5060632;28;20686;-45
2020/12/28 04:23:26;;;;;;;1.50;1.40;;;3.10;99.90;;;;;;5051828;28;20017;-45
2020/12/28 04:25:51;;;;;;;2.15;1.65;;;3.10;99.90;;;;;;5052276;28;20040;-46
2020/12/28 04:28:17;;;;;;;2.15;1.52;;;3.00;99.90;;;;;;5054122;28;20029;-46
2020/12/28 04:30:42;;;;;;;2.15;1.70;;;3.00;99.90;;;;;;5059585;28;20024;-45
2020/12/28 04:33:08;;;;;;;1.40;1.30;;;3.00;99.90;;;;;;5058058;28;20032;-49
2020/12/28 04:35:33;;;;;;;1.58;1.48;;;3.00;99.90;;;;;;5063858;28;20037;-47
2020/12/28 04:37:59;;;;;;;2.70;1.90;;;3.00;99.90;;;;;;5041143;28;20043;-44
2020/12/28 04:40:24;;;;;;;1.58;1.10;;;3.00;99.90;;;;;;5053683;28;20025;-47
2020/12/28 04:42:50;;;;;;;2.10;1.60;;;3.00;99.90;;;;;;5063153;28;20029;-45
2020/12/28 04:45:16;;;;;;;1.55;1.30;;;3.00;99.90;;;;;;5062160;28;20055;-49
2020/12/28 04:47:42;;;;;;;1.83;1.52;;;3.00;99.90;;;;;;5049063;28;20483;-46
2020/12/28 04:50:07;;;;;;;3.25;1.60;;;2.90;99.90;;;;;;5066479;28;20090;-47
2020/12/28 04:52:36;;;;;;;1.98;1.48;;;2.90;99.90;;;;;;5045139;28;20052;-47
2020/12/28 04:55:03;;;;;;;1.90;1.40;;;2.90;99.90;;;;;;5061748;28;20101;-45
2020/12/28 04:57:28;;;;;;;3.88;1.40;;;2.90;99.90;;;;;;5056685;28;20615;-47
2020/12/28 04:59:55;;;;;;;1.80;1.30;;;2.90;99.90;;;;;;5062390;28;20100;-48
2020/12/28 05:02:25;;;;;;;1.88;1.60;;;2.90;99.90;;;;;;5060069;28;20107;-48
2020/12/28 05:04:51;;;;;;;1.90;1.50;;;2.90;99.90;;;;;;5065758;28;20077;-45
2020/12/28 05:07:17;;;;;;;1.50;1.40;;;2.90;99.90;;;;;;5047766;28;20016;-46
2020/12/28 05:09:42;;;;;;;1.60;1.27;;;2.90;99.90;;;;;;5061516;28;20021;-46
2020/12/28 05:12:09;;;;;;;1.45;1.35;;;2.90;99.90;;;;;;5061362;28;20050;-48
2020/12/28 05:14:35;;;;;;;1.27;1.17;;;2.90;99.90;;;;;;5040724;28;20021;-48
2020/12/28 05:17:00;;;;;;;1.70;1.20;;;2.90;99.90;;;;;;5064394;28;20077;-49
2020/12/28 05:19:26;;;;;;;3.85;1.50;;;2.90;99.90;;;;;;5037433;28;20017;-49
2020/12/28 05:21:53;;;;;;;2.22;1.42;;;3.00;99.90;;;;;;5038787;28;20087;-47
2020/12/28 05:24:19;;;;;;;1.85;1.30;;;3.00;99.90;;;;;;5044422;28;20029;-46
2020/12/28 05:26:45;;;;;;;2.28;1.65;;;3.00;99.90;;;;;;5047482;28;20036;-48
2020/12/28 05:29:22;;;;;;;1.38;1.27;;;3.00;99.90;;;;;;5039131;28;20032;-48
2020/12/28 05:31:50;;;;;;;3.65;1.42;;;3.00;99.90;;;;;;5048213;28;20025;-48
2020/12/28 05:34:16;;;;;;;1.42;1.30;;;3.00;99.90;;;;;;5031005;28;20025;-48
2020/12/28 05:36:48;;;;;;;2.28;1.10;;;3.10;99.90;;;;;;5048128;28;20491;-48
2020/12/28 05:39:16;;;;;;;1.00;0.90;;;3.10;99.90;;;;;;5048626;28;20024;-49
2020/12/28 05:41:55;;;;;;;1.13;1.02;;;3.10;99.90;;;;;;5048263;28;20123;-46
2020/12/28 05:44:26;;;;;;;1.23;1.13;;;3.20;99.90;;;;;;5048941;28;20021;-47
2020/12/28 05:47:18;;;;;;;1.10;1.00;;;3.20;99.90;;;;;;5046713;28;20030;-46
2020/12/28 05:49:46;;;;;;;1.40;1.10;;;3.20;99.90;;;;;;5032944;28;20063;-47
2020/12/28 05:52:13;;;;;;;1.20;1.10;;;3.20;99.90;;;;;;5034856;28;20654;-46
2020/12/28 05:54:39;;;;;;;1.25;1.15;;;3.20;99.90;;;;;;5048327;28;20075;-49
2020/12/28 05:57:06;;;;;;;1.23;1.10;;;3.20;99.90;;;;;;5047972;28;20372;-48
2020/12/28 05:59:33;;;;;;;1.23;1.13;;;3.20;99.90;;;;;;5030402;28;20032;-46
2020/12/28 06:01:59;;;;;;;1.10;1.00;;;3.20;99.90;;;;;;5043079;28;20032;-48
2020/12/28 06:04:26;;;;;;;1.38;1.25;;;3.20;99.90;;;;;;5048554;28;20025;-44
2020/12/28 06:06:59;;;;;;;1.30;1.20;;;3.30;99.90;;;;;;5048014;28;20029;-45
2020/12/28 06:09:25;;;;;;;2.95;1.40;;;3.30;99.90;;;;;;5032991;28;20018;-47
2020/12/28 06:12:04;;;;;;;1.63;1.40;;;3.30;99.90;;;;;;5035948;28;20064;-45
2020/12/28 06:14:38;;;;;;;1.60;1.50;;;3.30;99.90;;;;;;5034330;28;20690;-45
2020/12/28 06:17:05;;;;;;;1.55;1.33;;;3.30;99.90;;;;;;5047847;28;20541;-45
2020/12/28 06:19:30;;;;;;;2.50;1.10;;;3.20;99.90;;;;;;5047551;28;20083;-45
2020/12/28 06:21:56;;;;;;;1.63;1.08;;;3.20;99.90;;;;;;5030324;28;20029;-47
2020/12/28 06:24:25;;;;;;;1.20;1.10;;;3.20;99.90;;;;;;5047740;28;20037;-46
2020/12/28 06:27:06;;;;;;;2.03;1.20;;;3.20;99.90;;;;;;5047501;28;20032;-45
2020/12/28 06:29:33;;;;;;;1.10;1.00;;;3.20;99.90;;;;;;5047772;28;20057;-46
2020/12/28 06:32:13;;;;;;;1.75;1.20;;;3.20;99.90;;;;;;5046258;28;20622;-45
2020/12/28 06:34:40;;;;;;;1.30;1.13;;;3.20;99.90;;;;;;5051721;28;20423;-45
2020/12/28 06:37:05;;;;;;;1.25;1.00;;;3.10;99.90;;;;;;5051332;28;20104;-45
2020/12/28 06:39:31;;;;;;;1.33;0.98;;;3.10;99.90;;;;;;5051211;28;20100;-45
2020/12/28 06:42:14;;;;;;;2.20;1.38;;;3.10;99.90;;;;;;5051015;28;20606;-44
2020/12/28 06:44:41;;;;;;;2.55;1.40;;;3.00;99.90;;;;;;5051365;28;20422;-46
2020/12/28 06:47:18;;;;;;;1.50;1.40;;;3.00;99.90;;;;;;5051158;28;20104;-45
2020/12/28 06:49:44;;;;;;;2.00;1.13;;;3.00;99.90;;;;;;5021907;28;20036;-45
2020/12/28 06:52:10;;;;;;;2.75;1.48;;;3.00;99.90;;;;;;5032432;28;20019;-48
2020/12/28 06:54:36;;;;;;;1.95;1.17;;;3.00;99.90;;;;;;5031583;28;20021;-45
2020/12/28 06:57:04;;;;;;;2.42;1.58;;;3.00;99.90;;;;;;5032110;28;20442;-46
2020/12/28 06:59:30;;;;;;;1.77;1.25;;;3.00;99.90;;;;;;5031606;28;20093;-43
2020/12/28 07:02:00;;;;;;;2.35;1.08;;;2.90;99.90;;;;;;5032245;28;20045;-45
2020/12/28 07:04:26;;;;;;;2.05;1.40;;;2.90;99.90;;;;;;5031700;28;20021;-46
2020/12/28 07:07:06;;;;;;;1.55;1.42;;;2.90;99.90;;;;;;5031428;28;20034;-45
2020/12/28 07:09:31;;;;;;;2.50;1.13;;;2.90;99.90;;;;;;5030859;28;20029;-44
2020/12/28 07:12:20;;;;;;;1.77;1.50;;;2.80;99.90;;;;;;5038123;28;20018;-46
2020/12/28 07:14:46;;;;;;;1.33;0.98;;;2.80;99.90;;;;;;5031631;28;20028;-45
2020/12/28 07:17:11;;;;;;;1.45;1.10;;;2.80;99.90;;;;;;5031435;28;20045;-45
2020/12/28 07:19:37;;;;;;;2.45;1.35;;;2.70;99.90;;;;;;5013677;28;20026;-46
2020/12/28 07:22:02;;;;;;;1.73;1.17;;;2.70;99.90;;;;;;5013588;28;20026;-43
2020/12/28 07:24:28;;;;;;;2.45;0.93;;;2.70;99.90;;;;;;5045187;28;20100;-47
2020/12/28 07:26:54;;;;;;;1.38;1.20;;;2.70;99.90;;;;;;5052154;28;20081;-45
2020/12/28 07:29:20;;;;;;;2.22;1.65;;;2.70;99.90;;;;;;5062389;28;20012;-43
2020/12/28 07:31:46;;;;;;;3.20;1.60;;;2.60;99.90;;;;;;5038599;28;20045;-46
2020/12/28 07:34:17;;;;;;;2.10;1.55;;;2.60;99.90;;;;;;5043629;28;20025;-46
2020/12/28 07:36:47;;;;;;;2.80;1.73;;;2.60;99.90;;;;;;5040732;28;20041;-48
2020/12/28 07:39:14;;;;;;;2.92;1.60;;;2.60;99.90;;;;;;5042720;28;20017;-44
2020/12/28 07:41:40;;;;;;;2.83;1.90;;;2.60;99.90;;;;;;5042254;28;20036;-48
2020/12/28 07:44:06;;;;;;;1.98;1.60;;;2.60;99.90;;;;;;5041294;28;20021;-46
2020/12/28 07:46:32;;;;;;;2.17;1.70;;;2.60;99.90;;;;;;5043356;28;20507;-44
2020/12/28 07:49:19;;;;;;;2.35;1.90;;;2.60;99.90;;;;;;5042233;28;20033;-46
2020/12/28 07:51:51;;;;;;;3.17;1.83;;;2.50;99.90;;;;;;5044772;28;20033;-45
2020/12/28 07:54:21;;;;;;;3.13;1.67;;;2.50;99.90;;;;;;5042762;28;20040;-45
2020/12/28 07:57:01;;;;;;;2.67;1.70;;;2.50;99.90;;;;;;5049796;28;20025;-45
2020/12/28 07:59:42;;;;;;;1.98;1.42;;;2.50;99.90;;;;;;5049532;28;20021;-48
2020/12/28 08:02:37;;;;;;;1.80;1.65;;;2.50;99.90;;;;;;5045779;28;20046;-43
2020/12/28 08:05:03;;;;;;;2.13;1.60;;;2.50;99.90;;;;;;5051300;28;20111;-45
2020/12/28 08:07:34;;;;;;;3.65;1.80;;;2.50;99.90;;;;;;5032762;28;20029;-46
2020/12/28 08:10:00;;;;;;;3.90;2.03;;;2.50;99.90;;;;;;5032527;28;21936;-45
2020/12/28 08:12:30;;;;;;;3.00;1.88;;;2.50;99.90;;;;;;5040054;28;20021;-47
2020/12/28 08:14:56;;;;;;;2.85;1.98;;;2.50;99.90;;;;;;5044762;28;20025;-46
2020/12/28 08:17:28;;;;;;;2.20;1.98;;;2.50;99.90;;;;;;5047112;28;20035;-46
2020/12/28 08:20:06;;;;;;;2.40;2.00;;;2.50;99.90;;;;;;5042588;28;20036;-45
2020/12/28 08:22:32;;;;;;;1.85;1.70;;;2.50;99.90;;;;;;5060744;28;20530;-45
2020/12/28 08:25:02;;;;;;;2.45;2.05;;;2.50;99.90;;;;;;5047905;28;20052;-44
2020/12/28 08:27:29;;;;;;;2.35;2.10;;;2.50;99.90;;;;;;5049541;28;20072;-45
2020/12/28 08:29:56;;;;;;;2.40;1.50;;;2.50;99.90;;;;;;5049231;28;20021;-46
2020/12/28 08:32:25;;;;;;;2.20;1.95;;;2.50;99.90;;;;;;5086268;22;20533;-59
2020/12/28 08:34:59;;;;;;;4.13;2.17;;;2.50;99.90;;;;;;5068089;28;20672;-60
2020/12/28 08:37:26;;;;;;;2.92;1.88;;;2.50;99.90;;;;;;5066899;28;20110;-60
2020/12/28 08:39:51;;;;;;;3.60;1.83;;;2.50;99.90;;;;;;5067411;28;20016;-59
2020/12/28 08:42:34;;;;;;;4.47;2.13;;;2.50;99.90;;;;;;5069544;28;20035;-62
2020/12/28 08:45:03;;;;;;;2.60;1.92;;;2.50;99.90;;;;;;5068877;28;20103;-60
2020/12/28 08:47:30;;;;;;;3.80;2.35;;;2.50;99.90;;;;;;5069242;28;20020;-60
2020/12/28 08:49:56;;;;;;;3.47;2.00;;;2.50;99.90;;;;;;5068885;28;20062;-60
2020/12/28 08:52:23;;;;;;;2.95;2.20;;;2.50;99.90;;;;;;5068601;28;20046;-61
2020/12/28 08:55:00;;;;;;;3.17;2.30;;;2.50;99.90;;;;;;5068114;28;20013;-60
2020/12/28 08:57:30;;;;;;;2.50;2.17;;;2.40;99.90;;;;;;5068694;28;20027;-59
2020/12/28 08:59:58;;;;;;;3.33;2.20;;;2.40;99.90;;;;;;5068536;28;20207;-60
2020/12/28 09:02:25;;;;;;;3.55;2.28;;;2.40;99.90;;;;;;5068912;28;20025;-58
2020/12/28 09:04:51;;;;;;;3.53;2.38;;;2.40;99.90;;;;;;5068909;28;20029;-59
2020/12/28 09:07:18;;;;;;;2.38;2.00;;;2.40;99.90;;;;;;5068190;28;20081;-59
2020/12/28 09:09:46;;;;;;;4.28;2.47;;;2.40;99.90;;;;;;5068897;28;20017;-58
2020/12/28 09:12:12;;;;;;;3.55;2.03;;;2.30;99.90;;;;;;5068719;28;20016;-59
2020/12/28 09:14:39;;;;;;;4.15;2.53;;;2.30;99.90;;;;;;5068135;28;20112;-61
2020/12/28 09:17:05;;;;;;;3.72;2.47;;;2.30;99.90;;;;;;5068901;28;20024;-59
2020/12/28 09:19:30;;;;;;;4.57;2.90;;;2.30;99.90;;;;;;5068564;28;20047;-60
2020/12/28 09:21:56;;;;;;;3.35;2.70;;;2.30;99.90;;;;;;5068843;28;20025;-60
2020/12/28 09:24:23;;;;;;;3.28;2.78;;;2.30;99.90;;;;;;5068892;28;20037;-60
2020/12/28 09:26:48;;;;;;;3.75;2.53;;;2.30;99.90;;;;;;5068603;28;20028;-60
2020/12/28 09:29:14;;;;;;;4.00;2.15;;;2.30;99.90;;;;;;5068701;28;20035;-60
2020/12/28 09:31:40;;;;;;;4.57;3.10;;;2.30;99.90;;;;;;5051083;28;20085;-60
2020/12/28 09:34:06;;;;;;;3.20;2.40;;;2.30;99.90;;;;;;5069190;28;20020;-58
2020/12/28 09:36:32;;;;;;;3.05;2.20;;;2.30;99.90;;;;;;5068921;28;20036;-59
2020/12/28 09:38:58;;;;;;;6.32;2.95;;;2.30;99.90;;;;;;5068779;28;20494;-60
2020/12/28 09:41:24;;;;;;;3.00;2.20;;;2.30;99.90;;;;;;5068933;28;20055;-58
2020/12/28 09:43:50;;;;;;;3.22;2.67;;;2.40;99.90;;;;;;5063751;28;20029;-59
2020/12/28 09:46:19;;;;;;;4.82;3.30;;;2.40;99.90;;;;;;5059874;28;20028;-60
2020/12/28 09:48:47;;;;;;;5.25;3.15;;;2.40;99.90;;;;;;5051100;28;20032;-60
2020/12/28 09:51:12;;;;;;;3.42;2.70;;;2.40;99.90;;;;;;5052246;28;20479;-61
2020/12/28 09:53:39;;;;;;;4.60;3.00;;;2.40;99.90;;;;;;5062184;28;20029;-60
2020/12/28 09:56:05;;;;;;;3.40;2.72;;;2.50;99.90;;;;;;5050788;28;20037;-61
2020/12/28 09:58:32;;;;;;;3.25;2.90;;;2.40;99.90;;;;;;5068571;28;20034;-60
2020/12/28 10:00:58;;;;;;;5.03;2.75;;;2.50;99.90;;;;;;5069185;28;20028;-59
2020/12/28 10:03:24;;;;;;;3.63;2.83;;;2.50;99.90;;;;;;5070257;28;20032;-60
2020/12/28 10:05:50;;;;;;;4.10;3.08;;;2.60;99.90;;;;;;5068694;28;20027;-60
2020/12/28 10:08:15;;;;;;;3.58;3.17;;;2.60;99.90;;;;;;5072353;28;20520;-60
2020/12/28 10:10:41;;;;;;;6.60;3.42;;;2.60;99.90;;;;;;5063475;28;20398;-60
2020/12/28 10:13:06;;;;;;;3.72;2.80;;;2.60;99.90;;;;;;5065760;28;20482;-60
2020/12/28 10:15:32;;;;;;;4.38;3.30;;;2.70;99.90;;;;;;5070158;28;20048;-61
2020/12/28 10:18:12;;;;;;;3.40;2.65;;;2.70;99.90;;;;;;5072410;28;20024;-60
2020/12/28 10:20:38;;;;;;;3.92;2.95;;;2.70;99.90;;;;;;5072392;28;20402;-60
2020/12/28 10:23:04;;;;;;;4.30;3.28;;;2.70;99.90;;;;;;5072278;28;20031;-61
2020/12/28 10:25:29;;;;;;;3.75;2.75;;;2.80;99.90;;;;;;5053996;28;20701;-61
2020/12/28 10:27:55;;;;;;;4.50;3.30;;;2.80;99.90;;;;;;5071730;28;20036;-62
2020/12/28 10:30:20;;;;;;;4.00;2.75;;;2.80;99.90;;;;;;5053714;28;20020;-61
2020/12/28 10:32:46;;;;;;;4.70;3.28;;;2.80;99.90;;;;;;5072466;28;20025;-60
2020/12/28 10:35:11;;;;;;;3.83;2.72;;;2.90;99.90;;;;;;5071517;28;20044;-61
2020/12/28 10:37:37;;;;;;;5.07;3.20;;;2.90;99.90;;;;;;5071803;28;20035;-62
2020/12/28 10:40:03;;;;;;;3.80;3.38;;;3.00;99.90;;;;;;5053736;28;20040;-60
2020/12/28 10:42:29;;;;;;;4.68;3.28;;;3.00;99.90;;;;;;5071930;28;20029;-60
2020/12/28 10:44:55;;;;;;;5.72;3.22;;;3.00;99.90;;;;;;5071373;28;20117;-61
2020/12/28 10:47:20;;;;;;;3.92;3.10;;;3.10;99.90;;;;;;5071799;28;20063;-61
2020/12/28 10:49:46;;;;;;;4.45;3.50;;;3.10;99.90;;;;;;5064138;28;20028;-60
2020/12/28 10:52:11;;;;;;;6.47;3.10;;;3.10;99.90;;;;;;5071746;28;20059;-61
2020/12/28 10:54:37;;;;;;;4.45;3.55;;;3.20;99.90;;;;;;5071517;28;20013;-59
2020/12/28 10:57:02;;;;;;;4.03;3.10;;;3.20;99.90;;;;;;5071230;28;20036;-60
2020/12/28 10:59:28;;;;;;;5.38;3.53;;;3.30;99.90;;;;;;5071256;28;20055;-59
2020/12/28 11:01:57;;;;;;;4.70;3.42;;;3.30;99.90;;;;;;5071642;28;20103;-61
2020/12/28 11:04:22;;;;;;;4.30;3.10;;;3.30;99.90;;;;;;5071597;28;20543;-60
2020/12/28 11:06:48;;;;;;;5.03;3.60;;;3.40;99.90;;;;;;5071349;28;20104;-62
2020/12/28 11:09:13;;;;;;;3.88;3.28;;;3.40;99.90;;;;;;5071011;28;20040;-62
2020/12/28 11:11:39;;;;;;;4.05;3.08;;;3.40;99.90;;;;;;5059631;28;20158;-61
2020/12/28 11:14:04;;;;;;;3.42;2.97;;;3.50;99.90;;;;;;5049314;28;20085;-59
2020/12/28 11:16:30;;;;;;;6.10;4.47;;;3.50;99.90;;;;;;5051817;28;20054;-60
2020/12/28 11:18:55;;;;;;;6.13;3.17;;;3.50;99.90;;;;;;5053069;28;20089;-59
2020/12/28 11:21:22;;;;;;;3.47;3.17;;;3.50;99.90;;;;;;5061202;28;20025;-61
2020/12/28 11:24:01;;;;;;;4.13;2.83;;;3.60;99.90;;;;;;5046409;28;20021;-62
2020/12/28 11:26:34;;;;;;;5.20;3.22;;;3.60;99.90;;;;;;5052819;28;20024;-62
2020/12/28 11:29:04;;;;;;;3.55;3.17;;;3.60;99.90;;;;;;5051550;28;20020;-62
2020/12/28 11:31:31;;;;;;;4.00;3.00;;;3.60;99.90;;;;;;5066945;28;20024;-62
2020/12/28 11:33:56;;;;;;;4.53;3.35;;;3.60;99.90;;;;;;5070938;28;20100;-62
2020/12/28 11:36:22;;;;;;;3.83;2.63;;;3.70;99.90;;;;;;5069969;28;20095;-62
2020/12/28 11:38:48;;;;;;;4.35;3.10;;;3.70;99.90;;;;;;5057076;28;20033;-62
2020/12/28 11:41:15;;;;;;;5.40;3.45;;;3.60;99.90;;;;;;5071281;28;20025;-61
2020/12/28 11:43:41;;;;;;;6.15;3.53;;;3.70;99.90;;;;;;5070539;28;20146;-61
2020/12/28 11:46:07;;;;;;;3.60;2.88;;;3.70;99.90;;;;;;5070452;28;20032;-62
2020/12/28 11:48:33;;;;;;;3.88;3.28;;;3.70;99.90;;;;;;5065901;28;20024;-62
2020/12/28 11:51:00;;;;;;;4.30;3.13;;;3.70;99.90;;;;;;5070043;28;20407;-62
2020/12/28 11:53:26;;;;;;;4.63;3.08;;;3.70;99.90;;;;;;5069192;28;20021;-61
2020/12/28 11:56:04;;;;;;;3.45;3.15;;;3.70;99.90;;;;;;5064300;28;20043;-61
2020/12/28 11:58:36;;;;;;;5.63;3.58;;;3.70;99.90;;;;;;5068160;28;20020;-63
2020/12/28 12:01:10;;;;;;;4.88;3.05;;;3.70;99.90;;;;;;5069799;28;20028;-62
2020/12/28 12:03:36;;;;;;;4.47;3.10;;;3.70;99.90;;;;;;5051896;28;20024;-61
2020/12/28 12:06:01;;;;;;;4.47;3.08;;;3.70;99.90;;;;;;5069573;28;20448;-62
2020/12/28 12:08:27;;;;;;;5.50;3.60;;;3.70;99.90;;;;;;5069535;28;20025;-62
2020/12/28 12:10:53;;;;;;;4.20;2.90;;;3.70;99.90;;;;;;5068542;28;20100;-62
2020/12/28 12:13:19;;;;;;;5.03;3.38;;;3.80;99.90;;;;;;5068727;28;20024;-60
2020/12/28 12:15:46;;;;;;;5.65;3.03;;;3.80;99.90;;;;;;5068311;28;20020;-62
2020/12/28 12:18:11;;;;;;;4.28;3.05;;;3.80;99.90;;;;;;5069720;28;20095;-61
2020/12/28 12:20:37;;;;;;;3.95;3.13;;;3.80;99.90;;;;;;5070230;28;20032;-62
2020/12/28 12:23:04;;;;;;;4.38;3.00;;;3.80;99.90;;;;;;5069182;28;20090;-61
2020/12/28 12:25:29;;;;;;;5.57;3.53;;;3.90;99.90;;;;;;5062707;28;20380;-60
2020/12/28 12:27:55;;;;;;;6.35;3.65;;;3.90;99.90;;;;;;5069091;28;20025;-62
2020/12/28 12:30:20;;;;;;;6.30;3.60;;;3.90;99.90;;;;;;5069348;28;20016;-62
2020/12/28 12:32:46;;;;;;;7.00;4.07;;;3.90;99.90;;;;;;5070066;28;20032;-62
2020/12/28 12:35:11;;;;;;;10.07;6.38;;;3.90;99.90;;;;;;5069477;28;20079;-60
2020/12/28 12:37:37;;;;;;;5.43;4.22;;;3.90;99.90;;;;;;5069882;28;20024;-61
2020/12/28 12:40:03;;;;;;;5.32;3.83;;;3.90;99.90;;;;;;5069406;28;20070;-61
2020/12/28 12:42:28;;;;;;;6.40;4.20;;;4.00;99.90;;;;;;5068009;28;20024;-61
2020/12/28 12:44:54;;;;;;;3.65;3.35;;;4.00;99.90;;;;;;5057790;28;20036;-61
2020/12/28 12:47:19;;;;;;;3.75;2.97;;;4.00;99.90;;;;;;5063730;28;20035;-62
2020/12/28 12:49:45;;;;;;;5.65;3.53;;;4.00;99.90;;;;;;5063899;28;20021;-62
2020/12/28 12:52:17;;;;;;;4.80;2.90;;;4.00;99.90;;;;;;5068881;28;20027;-60
2020/12/28 12:54:43;;;;;;;4.00;3.10;;;4.00;99.90;;;;;;5050995;28;20376;-61
2020/12/28 12:57:08;;;;;;;3.95;3.15;;;4.00;99.90;;;;;;5059815;28;20108;-62